• Join FlightAware (Why Join?)
  • Login
  • US Flag 
10:12AM EDT


 

Airport Tracker/Info


-or-


 

Live Flight TrackerFlight Track Log ✈ EJA729 ✈ 20-Jun-2013 ✈ KRIL - KJAC

Flight Track Log - Related Links

Times and Time Zones

All times are in EDT time to prevent confusion due to time zone crossing. See the EJA729 flight status page for this flight to view local times or setup timezone preferences in your user account.

Time Position Orientation Groundspeed Altitude Reporting Facility
EDT Latitude Longitude Course Direction KTS MPH feet Rate Location/Type
11:04AM 39.5269 -107.7364 332° Northwest 99 114 5,400  Level Denver Center
11:05AM 39.5175 -107.8153 261° West 190 219 8,800 4,140 Climbing Denver Center
11:06AM 39.5089 -107.9161 264° West 264 304 14,000 4,260 Climbing Denver Center
11:07AM 39.5725 -107.9844 320° Northwest 315 362 17,700 3,240 Climbing Denver Center
11:08AM 39.6744 -108.0483 334° Northwest 369 425 20,700 2,400 Climbing Denver Center
11:09AM 40.1639 -107.9846 332° Northwest  Level FlightAware Approximate
11:09AM 39.7728 -108.1106 334° Northwest 408 470 22,700  Level Denver Center
11:11AM 39.9003 -108.1917 334° Northwest 460 529 25,000 1,980 Climbing Denver Center
11:12AM 40.0078 -108.2611 334° Northwest 450 518 26,900 1,920 Climbing Denver Center
11:13AM 40.1392 -108.3450 334° Northwest 470 541 29,100 1,440 Climbing Denver Center
11:14AM 40.2517 -108.4169 334° Northwest 471 542 30,000 420 Climbing Denver Center
11:15AM 40.3897 -108.5078 333° Northwest 494 568 30,000  Level Denver Center
11:16AM 40.5083 -108.5844 334° Northwest 497 572 30,000  Level Denver Center
11:17AM 40.6447 -108.6764 333° Northwest 495 570 30,000  Level Denver Center
11:18AM 40.7731 -108.7589 334° Northwest 494 568 30,000  Level Denver Center
11:19AM 40.8919 -108.8369 334° Northwest 497 572 30,000  Level Denver Center
11:20AM 41.0269 -108.9264 333° Northwest 485 558 30,000  Level Denver Center
11:21AM 41.1389 -109.0008 333° Northwest 473 544 30,000  Level Denver Center
11:22AM 41.2683 -109.0875 333° Northwest 466 536 30,000  Level Denver Center
11:23AM 41.3811 -109.1639 333° Northwest 466 536 30,000  Level Denver Center
11:24AM 41.5350 -109.2700 333° Northwest 474 545 30,000  Level Salt Lake Center
11:25AM 41.6636 -109.3564 333° Northwest 466 536 30,000  Level Salt Lake Center
11:26AM 41.7731 -109.4314 333° Northwest 462 532 30,000  Level Salt Lake Center
11:27AM 41.9008 -109.5197 333° Northwest 463 533 30,000  Level Salt Lake Center
11:28AM 42.0108 -109.5947 333° Northwest 462 532 30,000  Level Salt Lake Center
11:29AM 42.1389 -109.6842 333° Northwest 464 534 30,000  Level Salt Lake Center
11:30AM 42.2489 -109.7608 333° Northwest 465 535 30,000  Level Salt Lake Center
11:32AM 42.3600 -109.8378 333° Northwest 466 536 30,000 -420 Level Salt Lake Center
11:33AM 42.4883 -109.9272 333° Northwest 465 535 29,200 -1,140 Descending Salt Lake Center
11:34AM 42.5975 -110.0028 333° Northwest 460 529 27,700 -1,500 Descending Salt Lake Center
11:35AM 42.7164 -110.0875 332° Northwest 448 516 26,100 -1,620 Descending Salt Lake Center
11:36AM 42.8367 -110.1711 333° Northwest 436 502 24,400 -1,500 Descending Salt Lake Center
11:37AM 42.9378 -110.2444 332° Northwest 430 495 23,000 -1,440 Descending Salt Lake Center
11:38AM 43.0389 -110.3172 332° Northwest 429 494 21,500 -1,800 Descending Salt Lake Center
11:39AM 43.1603 -110.4019 333° Northwest 425 489 19,400 -2,040 Descending Salt Lake Center
11:40AM 43.2583 -110.4692 333° Northwest 398 458 17,400 -1,980 Descending Salt Lake Center
11:41AM 43.3497 -110.5353 332° Northwest 374 430 15,400 -1,380 Descending Salt Lake Center
11:42AM 43.4325 -110.5950 332° Northwest 342 394 14,600 -1,440 Descending Salt Lake Center
11:43AM 43.5144 -110.6350 341° North 324 373 12,500 -1,920 Descending Salt Lake Center
11:44AM 43.5981 -110.6694 343° North 297 342 10,700 -1,620 Descending Salt Lake Center
11:45AM 43.6583 -110.6439 17° North 255 293 9,200 -1,500 Descending Salt Lake Center
11:46AM 43.6756 -110.7036 292° West 217 250 7,600 -1,140 Descending Salt Lake Center
11:47AM 43.6356 -110.7242 200° South 172 198 6,900 -720 Descending Salt Lake Center